sensor_id;sensor_type;location;lat;lon;timestamp;P1;durP1;ratioP1;P2;durP2;ratioP2
15633;SDS011;14654;48.898;8.308;2022-11-20T00:01:30;10.00;;;9.20;;
15633;SDS011;14654;48.898;8.308;2022-11-20T00:03:55;9.63;;;8.83;;
15633;SDS011;14654;48.898;8.308;2022-11-20T00:06:23;9.43;;;8.63;;
15633;SDS011;14654;48.898;8.308;2022-11-20T00:08:48;9.43;;;8.63;;
15633;SDS011;14654;48.898;8.308;2022-11-20T00:11:15;9.53;;;8.73;;
15633;SDS011;14654;48.898;8.308;2022-11-20T00:13:42;9.00;;;8.20;;
15633;SDS011;14654;48.898;8.308;2022-11-20T00:16:09;9.23;;;8.43;;
15633;SDS011;14654;48.898;8.308;2022-11-20T00:18:36;8.30;;;7.60;;
15633;SDS011;14654;48.898;8.308;2022-11-20T00:21:05;7.73;;;7.03;;
15633;SDS011;14654;48.898;8.308;2022-11-20T00:23:33;7.10;;;6.50;;
15633;SDS011;14654;48.898;8.308;2022-11-20T00:26:05;6.87;;;6.27;;
15633;SDS011;14654;48.898;8.308;2022-11-20T00:28:32;6.87;;;6.27;;
15633;SDS011;14654;48.898;8.308;2022-11-20T00:31:15;6.47;;;5.97;;
15633;SDS011;14654;48.898;8.308;2022-11-20T00:33:42;6.37;;;5.77;;
15633;SDS011;14654;48.898;8.308;2022-11-20T00:36:18;6.87;;;6.17;;
15633;SDS011;14654;48.898;8.308;2022-11-20T00:38:45;6.43;;;5.83;;
15633;SDS011;14654;48.898;8.308;2022-11-20T00:41:12;6.63;;;6.03;;
15633;SDS011;14654;48.898;8.308;2022-11-20T00:43:39;6.40;;;5.90;;
15633;SDS011;14654;48.898;8.308;2022-11-20T00:46:09;6.30;;;5.80;;
15633;SDS011;14654;48.898;8.308;2022-11-20T00:48:38;7.63;;;6.30;;
15633;SDS011;14654;48.898;8.308;2022-11-20T00:51:03;6.37;;;5.73;;
15633;SDS011;14654;48.898;8.308;2022-11-20T00:53:29;6.70;;;6.10;;
15633;SDS011;14654;48.898;8.308;2022-11-20T00:56:04;7.13;;;6.53;;
15633;SDS011;14654;48.898;8.308;2022-11-20T00:58:32;6.80;;;6.23;;
15633;SDS011;14654;48.898;8.308;2022-11-20T01:00:59;6.90;;;6.37;;
15633;SDS011;14654;48.898;8.308;2022-11-20T01:03:26;7.17;;;6.50;;
15633;SDS011;14654;48.898;8.308;2022-11-20T01:05:51;7.10;;;6.40;;
15633;SDS011;14654;48.898;8.308;2022-11-20T01:08:16;7.10;;;6.50;;
15633;SDS011;14654;48.898;8.308;2022-11-20T01:10:41;7.53;;;6.93;;
15633;SDS011;14654;48.898;8.308;2022-11-20T01:13:07;6.80;;;6.27;;
15633;SDS011;14654;48.898;8.308;2022-11-20T01:15:50;7.33;;;6.73;;
15633;SDS011;14654;48.898;8.308;2022-11-20T01:18:16;7.77;;;7.17;;
15633;SDS011;14654;48.898;8.308;2022-11-20T01:20:41;7.40;;;6.50;;
15633;SDS011;14654;48.898;8.308;2022-11-20T01:23:06;7.93;;;7.07;;
15633;SDS011;14654;48.898;8.308;2022-11-20T01:25:32;7.77;;;7.00;;
15633;SDS011;14654;48.898;8.308;2022-11-20T01:27:59;6.93;;;6.37;;
15633;SDS011;14654;48.898;8.308;2022-11-20T01:30:24;7.20;;;6.60;;
15633;SDS011;14654;48.898;8.308;2022-11-20T01:32:50;7.23;;;6.63;;
15633;SDS011;14654;48.898;8.308;2022-11-20T01:35:15;7.37;;;6.77;;
15633;SDS011;14654;48.898;8.308;2022-11-20T01:37:41;7.50;;;6.80;;
15633;SDS011;14654;48.898;8.308;2022-11-20T01:40:06;7.17;;;6.57;;
15633;SDS011;14654;48.898;8.308;2022-11-20T01:42:32;6.97;;;6.37;;
15633;SDS011;14654;48.898;8.308;2022-11-20T01:48:17;7.47;;;6.77;;
15633;SDS011;14654;48.898;8.308;2022-11-20T01:50:44;6.93;;;6.37;;
15633;SDS011;14654;48.898;8.308;2022-11-20T01:53:10;7.57;;;6.87;;
15633;SDS011;14654;48.898;8.308;2022-11-20T01:55:41;7.90;;;7.20;;
15633;SDS011;14654;48.898;8.308;2022-11-20T01:58:11;7.07;;;6.50;;
15633;SDS011;14654;48.898;8.308;2022-11-20T02:00:37;7.27;;;6.60;;
15633;SDS011;14654;48.898;8.308;2022-11-20T02:03:03;7.37;;;6.77;;
15633;SDS011;14654;48.898;8.308;2022-11-20T02:05:35;7.67;;;6.97;;
15633;SDS011;14654;48.898;8.308;2022-11-20T02:08:05;7.00;;;6.40;;
15633;SDS011;14654;48.898;8.308;2022-11-20T02:10:32;7.23;;;6.53;;
15633;SDS011;14654;48.898;8.308;2022-11-20T02:12:58;7.50;;;6.70;;
15633;SDS011;14654;48.898;8.308;2022-11-20T02:15:42;6.70;;;6.07;;
15633;SDS011;14654;48.898;8.308;2022-11-20T02:18:09;6.60;;;6.00;;
15633;SDS011;14654;48.898;8.308;2022-11-20T02:20:35;6.87;;;6.17;;
15633;SDS011;14654;48.898;8.308;2022-11-20T02:23:12;6.83;;;6.20;;
15633;SDS011;14654;48.898;8.308;2022-11-20T02:25:41;6.63;;;6.13;;
15633;SDS011;14654;48.898;8.308;2022-11-20T02:28:08;6.47;;;5.97;;
15633;SDS011;14654;48.898;8.308;2022-11-20T02:30:34;6.60;;;5.97;;
15633;SDS011;14654;48.898;8.308;2022-11-20T02:33:00;6.03;;;5.53;;
15633;SDS011;14654;48.898;8.308;2022-11-20T02:37:51;5.40;;;4.90;;
15633;SDS011;14654;48.898;8.308;2022-11-20T02:40:19;5.60;;;5.10;;
15633;SDS011;14654;48.898;8.308;2022-11-20T02:42:45;5.77;;;5.23;;
15633;SDS011;14654;48.898;8.308;2022-11-20T02:45:11;5.27;;;4.80;;
15633;SDS011;14654;48.898;8.308;2022-11-20T02:47:36;6.10;;;5.60;;
15633;SDS011;14654;48.898;8.308;2022-11-20T02:50:02;6.00;;;4.97;;
15633;SDS011;14654;48.898;8.308;2022-11-20T02:52:28;5.63;;;5.13;;
15633;SDS011;14654;48.898;8.308;2022-11-20T02:54:55;6.50;;;5.17;;
15633;SDS011;14654;48.898;8.308;2022-11-20T02:57:20;6.30;;;5.17;;
15633;SDS011;14654;48.898;8.308;2022-11-20T02:59:45;6.10;;;5.50;;
15633;SDS011;14654;48.898;8.308;2022-11-20T03:02:11;5.73;;;5.23;;
15633;SDS011;14654;48.898;8.308;2022-11-20T03:04:36;5.80;;;5.20;;
15633;SDS011;14654;48.898;8.308;2022-11-20T03:07:02;5.93;;;5.33;;
15633;SDS011;14654;48.898;8.308;2022-11-20T03:09:27;6.07;;;5.57;;
15633;SDS011;14654;48.898;8.308;2022-11-20T03:11:53;5.50;;;5.00;;
15633;SDS011;14654;48.898;8.308;2022-11-20T03:14:18;5.17;;;4.77;;
15633;SDS011;14654;48.898;8.308;2022-11-20T03:16:43;5.53;;;5.10;;
15633;SDS011;14654;48.898;8.308;2022-11-20T03:19:08;5.67;;;5.17;;
15633;SDS011;14654;48.898;8.308;2022-11-20T03:21:34;5.20;;;4.73;;
15633;SDS011;14654;48.898;8.308;2022-11-20T03:24:00;6.40;;;5.53;;
15633;SDS011;14654;48.898;8.308;2022-11-20T03:26:26;5.20;;;4.80;;
15633;SDS011;14654;48.898;8.308;2022-11-20T03:28:56;5.43;;;5.03;;
15633;SDS011;14654;48.898;8.308;2022-11-20T03:31:26;5.00;;;4.60;;
15633;SDS011;14654;48.898;8.308;2022-11-20T03:33:57;5.20;;;4.80;;
15633;SDS011;14654;48.898;8.308;2022-11-20T03:36:23;5.03;;;4.60;;
15633;SDS011;14654;48.898;8.308;2022-11-20T03:38:49;5.33;;;4.83;;
15633;SDS011;14654;48.898;8.308;2022-11-20T03:41:18;6.27;;;5.00;;
15633;SDS011;14654;48.898;8.308;2022-11-20T03:43:48;5.40;;;4.90;;
15633;SDS011;14654;48.898;8.308;2022-11-20T03:46:15;5.37;;;4.87;;
15633;SDS011;14654;48.898;8.308;2022-11-20T03:48:41;5.23;;;4.73;;
15633;SDS011;14654;48.898;8.308;2022-11-20T03:51:13;5.50;;;5.00;;
15633;SDS011;14654;48.898;8.308;2022-11-20T03:53:47;5.90;;;5.30;;
15633;SDS011;14654;48.898;8.308;2022-11-20T03:56:15;5.57;;;5.07;;
15633;SDS011;14654;48.898;8.308;2022-11-20T03:58:41;6.20;;;5.60;;
15633;SDS011;14654;48.898;8.308;2022-11-20T04:01:08;5.60;;;5.10;;
15633;SDS011;14654;48.898;8.308;2022-11-20T04:03:38;5.63;;;5.07;;
15633;SDS011;14654;48.898;8.308;2022-11-20T04:06:05;6.27;;;5.27;;
15633;SDS011;14654;48.898;8.308;2022-11-20T04:08:32;5.90;;;5.30;;
15633;SDS011;14654;48.898;8.308;2022-11-20T04:11:07;5.67;;;5.17;;
15633;SDS011;14654;48.898;8.308;2022-11-20T04:13:34;6.10;;;5.50;;
15633;SDS011;14654;48.898;8.308;2022-11-20T04:15:59;5.73;;;5.13;;
15633;SDS011;14654;48.898;8.308;2022-11-20T04:18:24;5.47;;;4.97;;
15633;SDS011;14654;48.898;8.308;2022-11-20T04:20:50;5.43;;;4.93;;
15633;SDS011;14654;48.898;8.308;2022-11-20T04:23:15;5.50;;;5.03;;
15633;SDS011;14654;48.898;8.308;2022-11-20T04:25:40;5.43;;;4.93;;
15633;SDS011;14654;48.898;8.308;2022-11-20T04:28:05;5.60;;;5.10;;
15633;SDS011;14654;48.898;8.308;2022-11-20T04:30:31;6.03;;;5.53;;
15633;SDS011;14654;48.898;8.308;2022-11-20T04:32:56;6.27;;;5.70;;
15633;SDS011;14654;48.898;8.308;2022-11-20T04:35:21;6.57;;;5.97;;
15633;SDS011;14654;48.898;8.308;2022-11-20T04:37:47;5.50;;;5.00;;
15633;SDS011;14654;48.898;8.308;2022-11-20T04:40:12;5.53;;;5.03;;
15633;SDS011;14654;48.898;8.308;2022-11-20T04:42:37;5.70;;;5.20;;
15633;SDS011;14654;48.898;8.308;2022-11-20T04:45:03;5.40;;;5.00;;
15633;SDS011;14654;48.898;8.308;2022-11-20T04:47:28;5.90;;;5.40;;
15633;SDS011;14654;48.898;8.308;2022-11-20T04:49:53;5.27;;;4.77;;
15633;SDS011;14654;48.898;8.308;2022-11-20T04:52:19;5.50;;;5.00;;
15633;SDS011;14654;48.898;8.308;2022-11-20T04:54:44;5.77;;;5.00;;
15633;SDS011;14654;48.898;8.308;2022-11-20T04:57:09;5.33;;;4.90;;
15633;SDS011;14654;48.898;8.308;2022-11-20T04:59:35;5.73;;;4.63;;
15633;SDS011;14654;48.898;8.308;2022-11-20T05:02:00;5.20;;;4.70;;
15633;SDS011;14654;48.898;8.308;2022-11-20T05:04:25;5.00;;;4.60;;
15633;SDS011;14654;48.898;8.308;2022-11-20T05:06:51;5.10;;;4.50;;
15633;SDS011;14654;48.898;8.308;2022-11-20T05:09:17;5.00;;;4.60;;
15633;SDS011;14654;48.898;8.308;2022-11-20T05:11:42;4.93;;;4.53;;
15633;SDS011;14654;48.898;8.308;2022-11-20T05:14:08;4.60;;;4.20;;
15633;SDS011;14654;48.898;8.308;2022-11-20T05:16:33;5.13;;;4.60;;
15633;SDS011;14654;48.898;8.308;2022-11-20T05:19:00;4.90;;;4.50;;
15633;SDS011;14654;48.898;8.308;2022-11-20T05:21:26;5.10;;;4.13;;
15633;SDS011;14654;48.898;8.308;2022-11-20T05:23:52;4.47;;;4.07;;
15633;SDS011;14654;48.898;8.308;2022-11-20T05:26:18;4.43;;;4.07;;
15633;SDS011;14654;48.898;8.308;2022-11-20T05:28:46;4.50;;;4.10;;
15633;SDS011;14654;48.898;8.308;2022-11-20T05:31:13;4.57;;;4.17;;
15633;SDS011;14654;48.898;8.308;2022-11-20T05:33:43;4.23;;;3.80;;
15633;SDS011;14654;48.898;8.308;2022-11-20T05:36:10;4.10;;;3.80;;
15633;SDS011;14654;48.898;8.308;2022-11-20T05:38:37;4.33;;;3.90;;
15633;SDS011;14654;48.898;8.308;2022-11-20T05:41:06;6.43;;;4.17;;
15633;SDS011;14654;48.898;8.308;2022-11-20T05:43:33;4.30;;;3.90;;
15633;SDS011;14654;48.898;8.308;2022-11-20T05:45:59;3.83;;;3.43;;
15633;SDS011;14654;48.898;8.308;2022-11-20T05:48:25;4.10;;;3.80;;
15633;SDS011;14654;48.898;8.308;2022-11-20T05:50:50;3.77;;;3.47;;
15633;SDS011;14654;48.898;8.308;2022-11-20T05:53:16;4.00;;;3.60;;
15633;SDS011;14654;48.898;8.308;2022-11-20T05:55:41;3.77;;;3.47;;
15633;SDS011;14654;48.898;8.308;2022-11-20T05:58:06;3.73;;;3.40;;
15633;SDS011;14654;48.898;8.308;2022-11-20T06:00:32;3.80;;;3.30;;
15633;SDS011;14654;48.898;8.308;2022-11-20T06:02:57;3.70;;;3.27;;
15633;SDS011;14654;48.898;8.308;2022-11-20T06:05:22;3.70;;;3.40;;
15633;SDS011;14654;48.898;8.308;2022-11-20T06:07:48;3.30;;;3.00;;
15633;SDS011;14654;48.898;8.308;2022-11-20T06:10:13;3.73;;;3.40;;
15633;SDS011;14654;48.898;8.308;2022-11-20T06:12:38;3.67;;;3.37;;
15633;SDS011;14654;48.898;8.308;2022-11-20T06:15:04;3.73;;;3.13;;
15633;SDS011;14654;48.898;8.308;2022-11-20T06:17:30;3.20;;;2.90;;
15633;SDS011;14654;48.898;8.308;2022-11-20T06:19:55;3.50;;;3.20;;
15633;SDS011;14654;48.898;8.308;2022-11-20T06:22:21;3.50;;;3.13;;
15633;SDS011;14654;48.898;8.308;2022-11-20T06:24:46;3.50;;;3.20;;
15633;SDS011;14654;48.898;8.308;2022-11-20T06:27:11;3.30;;;3.00;;
15633;SDS011;14654;48.898;8.308;2022-11-20T06:29:37;4.10;;;3.53;;
15633;SDS011;14654;48.898;8.308;2022-11-20T06:32:02;3.50;;;3.20;;
15633;SDS011;14654;48.898;8.308;2022-11-20T06:34:27;4.40;;;3.83;;
15633;SDS011;14654;48.898;8.308;2022-11-20T06:36:53;3.83;;;3.13;;
15633;SDS011;14654;48.898;8.308;2022-11-20T06:39:18;3.77;;;3.40;;
15633;SDS011;14654;48.898;8.308;2022-11-20T06:41:43;3.83;;;3.53;;
15633;SDS011;14654;48.898;8.308;2022-11-20T06:44:08;3.50;;;3.20;;
15633;SDS011;14654;48.898;8.308;2022-11-20T06:46:34;4.13;;;3.73;;
15633;SDS011;14654;48.898;8.308;2022-11-20T06:48:59;4.17;;;3.77;;
15633;SDS011;14654;48.898;8.308;2022-11-20T06:51:24;3.90;;;3.50;;
15633;SDS011;14654;48.898;8.308;2022-11-20T06:53:50;3.93;;;3.57;;
15633;SDS011;14654;48.898;8.308;2022-11-20T06:56:15;3.80;;;3.40;;
15633;SDS011;14654;48.898;8.308;2022-11-20T06:58:41;3.83;;;3.53;;
15633;SDS011;14654;48.898;8.308;2022-11-20T07:01:09;3.70;;;3.40;;
15633;SDS011;14654;48.898;8.308;2022-11-20T07:03:36;3.50;;;3.20;;
15633;SDS011;14654;48.898;8.308;2022-11-20T07:06:02;4.03;;;3.57;;
15633;SDS011;14654;48.898;8.308;2022-11-20T07:08:28;4.10;;;3.80;;
15633;SDS011;14654;48.898;8.308;2022-11-20T07:10:56;3.70;;;3.40;;
15633;SDS011;14654;48.898;8.308;2022-11-20T07:13:23;3.83;;;3.47;;
15633;SDS011;14654;48.898;8.308;2022-11-20T07:15:48;3.63;;;3.27;;
15633;SDS011;14654;48.898;8.308;2022-11-20T07:18:14;3.43;;;3.23;;
15633;SDS011;14654;48.898;8.308;2022-11-20T07:20:39;4.00;;;3.70;;
15633;SDS011;14654;48.898;8.308;2022-11-20T07:23:04;3.77;;;3.37;;
15633;SDS011;14654;48.898;8.308;2022-11-20T07:25:30;4.27;;;3.87;;
15633;SDS011;14654;48.898;8.308;2022-11-20T07:27:58;3.83;;;3.53;;
15633;SDS011;14654;48.898;8.308;2022-11-20T07:30:26;4.10;;;3.70;;
15633;SDS011;14654;48.898;8.308;2022-11-20T07:32:53;3.87;;;3.57;;
15633;SDS011;14654;48.898;8.308;2022-11-20T07:35:20;3.73;;;3.43;;
15633;SDS011;14654;48.898;8.308;2022-11-20T07:37:46;3.77;;;3.40;;
15633;SDS011;14654;48.898;8.308;2022-11-20T07:40:12;4.10;;;3.70;;
15633;SDS011;14654;48.898;8.308;2022-11-20T07:42:38;4.40;;;3.90;;
15633;SDS011;14654;48.898;8.308;2022-11-20T07:45:03;4.07;;;3.70;;
15633;SDS011;14654;48.898;8.308;2022-11-20T07:47:35;3.70;;;3.23;;
15633;SDS011;14654;48.898;8.308;2022-11-20T07:50:01;4.40;;;3.67;;
15633;SDS011;14654;48.898;8.308;2022-11-20T07:52:27;3.67;;;3.37;;
15633;SDS011;14654;48.898;8.308;2022-11-20T07:54:52;4.87;;;3.80;;
15633;SDS011;14654;48.898;8.308;2022-11-20T07:57:17;3.73;;;3.33;;
15633;SDS011;14654;48.898;8.308;2022-11-20T07:59:42;3.60;;;3.30;;
15633;SDS011;14654;48.898;8.308;2022-11-20T08:02:09;4.17;;;3.77;;
15633;SDS011;14654;48.898;8.308;2022-11-20T08:04:36;3.77;;;3.40;;
15633;SDS011;14654;48.898;8.308;2022-11-20T08:07:01;3.40;;;3.10;;
15633;SDS011;14654;48.898;8.308;2022-11-20T08:09:27;3.60;;;3.30;;
15633;SDS011;14654;48.898;8.308;2022-11-20T08:11:53;3.40;;;3.10;;
15633;SDS011;14654;48.898;8.308;2022-11-20T08:14:45;3.67;;;3.20;;
15633;SDS011;14654;48.898;8.308;2022-11-20T08:17:10;3.90;;;3.50;;
15633;SDS011;14654;48.898;8.308;2022-11-20T08:19:36;3.53;;;3.23;;
15633;SDS011;14654;48.898;8.308;2022-11-20T08:22:01;4.07;;;3.30;;
15633;SDS011;14654;48.898;8.308;2022-11-20T08:24:27;3.13;;;2.83;;
15633;SDS011;14654;48.898;8.308;2022-11-20T08:26:52;3.00;;;2.80;;
15633;SDS011;14654;48.898;8.308;2022-11-20T08:29:17;3.20;;;2.90;;
15633;SDS011;14654;48.898;8.308;2022-11-20T08:31:43;3.30;;;3.10;;
15633;SDS011;14654;48.898;8.308;2022-11-20T08:34:08;2.90;;;2.60;;
15633;SDS011;14654;48.898;8.308;2022-11-20T08:36:34;4.40;;;3.20;;
15633;SDS011;14654;48.898;8.308;2022-11-20T08:39:00;3.10;;;2.80;;
15633;SDS011;14654;48.898;8.308;2022-11-20T08:41:25;3.73;;;3.20;;
15633;SDS011;14654;48.898;8.308;2022-11-20T08:43:56;4.00;;;3.30;;
15633;SDS011;14654;48.898;8.308;2022-11-20T08:46:23;3.70;;;3.30;;
15633;SDS011;14654;48.898;8.308;2022-11-20T08:48:51;3.47;;;3.20;;
15633;SDS011;14654;48.898;8.308;2022-11-20T08:51:17;3.23;;;2.93;;
15633;SDS011;14654;48.898;8.308;2022-11-20T08:53:43;3.27;;;3.03;;
15633;SDS011;14654;48.898;8.308;2022-11-20T08:56:08;3.60;;;3.30;;
15633;SDS011;14654;48.898;8.308;2022-11-20T08:58:34;3.30;;;3.03;;
15633;SDS011;14654;48.898;8.308;2022-11-20T09:01:00;3.90;;;3.10;;
15633;SDS011;14654;48.898;8.308;2022-11-20T09:03:26;3.33;;;3.07;;
15633;SDS011;14654;48.898;8.308;2022-11-20T09:05:56;3.27;;;2.80;;
15633;SDS011;14654;48.898;8.308;2022-11-20T09:08:25;3.40;;;2.97;;
15633;SDS011;14654;48.898;8.308;2022-11-20T09:10:52;3.00;;;2.70;;
15633;SDS011;14654;48.898;8.308;2022-11-20T09:13:18;3.27;;;3.07;;
15633;SDS011;14654;48.898;8.308;2022-11-20T09:15:44;3.67;;;3.47;;
15633;SDS011;14654;48.898;8.308;2022-11-20T09:18:09;4.93;;;4.43;;
15633;SDS011;14654;48.898;8.308;2022-11-20T09:20:35;5.40;;;4.90;;
15633;SDS011;14654;48.898;8.308;2022-11-20T09:23:01;7.17;;;6.40;;
15633;SDS011;14654;48.898;8.308;2022-11-20T09:25:27;8.93;;;8.03;;
15633;SDS011;14654;48.898;8.308;2022-11-20T09:27:55;8.23;;;7.53;;
15633;SDS011;14654;48.898;8.308;2022-11-20T09:30:22;10.60;;;9.50;;
15633;SDS011;14654;48.898;8.308;2022-11-20T09:32:47;10.00;;;9.00;;
15633;SDS011;14654;48.898;8.308;2022-11-20T09:35:12;9.87;;;8.87;;
15633;SDS011;14654;48.898;8.308;2022-11-20T09:37:39;10.00;;;9.03;;
15633;SDS011;14654;48.898;8.308;2022-11-20T09:40:05;17.60;;;15.33;;
15633;SDS011;14654;48.898;8.308;2022-11-20T09:42:39;17.23;;;12.97;;
15633;SDS011;14654;48.898;8.308;2022-11-20T09:50:32;60.83;;;42.40;;
15633;SDS011;14654;48.898;8.308;2022-11-20T09:53:22;39.10;;;31.83;;
15633;SDS011;14654;48.898;8.308;2022-11-20T09:55:51;17.47;;;15.63;;
15633;SDS011;14654;48.898;8.308;2022-11-20T10:01:09;49.37;;;34.00;;
15633;SDS011;14654;48.898;8.308;2022-11-20T10:09:22;25.57;;;21.83;;
15633;SDS011;14654;48.898;8.308;2022-11-20T10:27:56;18.93;;;17.23;;
15633;SDS011;14654;48.898;8.308;2022-11-20T10:30:25;8.93;;;8.03;;
15633;SDS011;14654;48.898;8.308;2022-11-20T10:32:53;21.80;;;19.80;;
15633;SDS011;14654;48.898;8.308;2022-11-20T10:35:37;13.37;;;12.17;;
15633;SDS011;14654;48.898;8.308;2022-11-20T10:38:54;19.03;;;17.43;;
15633;SDS011;14654;48.898;8.308;2022-11-20T10:41:00;13.73;;;12.57;;
15633;SDS011;14654;48.898;8.308;2022-11-20T10:43:46;7.50;;;6.90;;
15633;SDS011;14654;48.898;8.308;2022-11-20T10:46:21;5.60;;;5.10;;
15633;SDS011;14654;48.898;8.308;2022-11-20T10:48:48;4.90;;;4.50;;
15633;SDS011;14654;48.898;8.308;2022-11-20T10:51:21;4.90;;;3.83;;
15633;SDS011;14654;48.898;8.308;2022-11-20T10:56:46;6.60;;;6.10;;
15633;SDS011;14654;48.898;8.308;2022-11-20T10:59:41;6.03;;;5.30;;
15633;SDS011;14654;48.898;8.308;2022-11-20T11:02:17;3.37;;;3.07;;
15633;SDS011;14654;48.898;8.308;2022-11-20T11:04:51;3.10;;;2.80;;
15633;SDS011;14654;48.898;8.308;2022-11-20T11:07:25;3.07;;;2.77;;
15633;SDS011;14654;48.898;8.308;2022-11-20T11:09:55;2.73;;;2.53;;
15633;SDS011;14654;48.898;8.308;2022-11-20T11:12:22;2.80;;;2.60;;
15633;SDS011;14654;48.898;8.308;2022-11-20T11:14:50;2.40;;;2.20;;
15633;SDS011;14654;48.898;8.308;2022-11-20T11:22:43;2.63;;;2.27;;
15633;SDS011;14654;48.898;8.308;2022-11-20T11:28:19;2.60;;;2.10;;
15633;SDS011;14654;48.898;8.308;2022-11-20T11:30:49;2.83;;;2.37;;
15633;SDS011;14654;48.898;8.308;2022-11-20T11:33:19;2.33;;;2.10;;
15633;SDS011;14654;48.898;8.308;2022-11-20T11:35:48;2.50;;;2.30;;
15633;SDS011;14654;48.898;8.308;2022-11-20T11:38:36;3.47;;;3.13;;
15633;SDS011;14654;48.898;8.308;2022-11-20T11:41:09;5.73;;;4.13;;
15633;SDS011;14654;48.898;8.308;2022-11-20T11:43:49;6.60;;;5.33;;
15633;SDS011;14654;48.898;8.308;2022-11-20T11:46:36;6.63;;;5.93;;
15633;SDS011;14654;48.898;8.308;2022-11-20T11:54:08;3.83;;;2.97;;
15633;SDS011;14654;48.898;8.308;2022-11-20T11:56:43;4.47;;;2.30;;
15633;SDS011;14654;48.898;8.308;2022-11-20T11:59:11;4.93;;;4.43;;
15633;SDS011;14654;48.898;8.308;2022-11-20T12:04:57;6.13;;;4.03;;
15633;SDS011;14654;48.898;8.308;2022-11-20T12:15:50;4.80;;;2.73;;
15633;SDS011;14654;48.898;8.308;2022-11-20T12:18:16;4.70;;;2.70;;
15633;SDS011;14654;48.898;8.308;2022-11-20T12:20:53;3.33;;;3.00;;
15633;SDS011;14654;48.898;8.308;2022-11-20T12:23:44;2.77;;;2.57;;
15633;SDS011;14654;48.898;8.308;2022-11-20T12:32:14;4.13;;;2.50;;
15633;SDS011;14654;48.898;8.308;2022-11-20T12:34:58;2.40;;;1.80;;
15633;SDS011;14654;48.898;8.308;2022-11-20T12:40:52;2.67;;;1.90;;
15633;SDS011;14654;48.898;8.308;2022-11-20T12:43:36;2.47;;;2.10;;
15633;SDS011;14654;48.898;8.308;2022-11-20T12:46:34;2.20;;;1.87;;
15633;SDS011;14654;48.898;8.308;2022-11-20T12:57:08;1.97;;;1.70;;
15633;SDS011;14654;48.898;8.308;2022-11-20T13:02:35;2.10;;;1.60;;
15633;SDS011;14654;48.898;8.308;2022-11-20T13:07:50;1.73;;;1.50;;
15633;SDS011;14654;48.898;8.308;2022-11-20T13:13:23;2.33;;;1.90;;
15633;SDS011;14654;48.898;8.308;2022-11-20T13:15:53;1.93;;;1.37;;
15633;SDS011;14654;48.898;8.308;2022-11-20T13:18:27;2.13;;;1.30;;
15633;SDS011;14654;48.898;8.308;2022-11-20T13:20:56;1.47;;;1.20;;
15633;SDS011;14654;48.898;8.308;2022-11-20T13:23:25;1.87;;;1.20;;
15633;SDS011;14654;48.898;8.308;2022-11-20T13:26:02;1.27;;;0.90;;
15633;SDS011;14654;48.898;8.308;2022-11-20T13:28:38;1.50;;;0.90;;
15633;SDS011;14654;48.898;8.308;2022-11-20T13:31:09;1.37;;;0.93;;
15633;SDS011;14654;48.898;8.308;2022-11-20T13:33:53;2.37;;;1.13;;
15633;SDS011;14654;48.898;8.308;2022-11-20T13:36:24;1.87;;;1.00;;
15633;SDS011;14654;48.898;8.308;2022-11-20T13:38:52;1.23;;;0.90;;
15633;SDS011;14654;48.898;8.308;2022-11-20T13:41:23;1.80;;;1.00;;
15633;SDS011;14654;48.898;8.308;2022-11-20T13:43:57;1.73;;;0.83;;
15633;SDS011;14654;48.898;8.308;2022-11-20T13:46:35;2.63;;;1.20;;
15633;SDS011;14654;48.898;8.308;2022-11-20T13:49:06;2.33;;;1.00;;
15633;SDS011;14654;48.898;8.308;2022-11-20T13:51:40;2.13;;;1.00;;
15633;SDS011;14654;48.898;8.308;2022-11-20T13:57:15;1.43;;;0.90;;
15633;SDS011;14654;48.898;8.308;2022-11-20T13:59:58;1.37;;;1.00;;
15633;SDS011;14654;48.898;8.308;2022-11-20T14:02:33;1.60;;;0.90;;
15633;SDS011;14654;48.898;8.308;2022-11-20T14:04:58;2.03;;;1.10;;
15633;SDS011;14654;48.898;8.308;2022-11-20T14:07:31;1.93;;;1.10;;
15633;SDS011;14654;48.898;8.308;2022-11-20T14:10:02;2.03;;;0.97;;
15633;SDS011;14654;48.898;8.308;2022-11-20T14:12:29;1.57;;;1.03;;
15633;SDS011;14654;48.898;8.308;2022-11-20T14:14:56;2.00;;;1.30;;
15633;SDS011;14654;48.898;8.308;2022-11-20T14:17:24;2.40;;;1.13;;
15633;SDS011;14654;48.898;8.308;2022-11-20T14:20:06;1.63;;;1.00;;
15633;SDS011;14654;48.898;8.308;2022-11-20T14:22:39;1.63;;;1.27;;
15633;SDS011;14654;48.898;8.308;2022-11-20T14:27:43;2.27;;;1.00;;
15633;SDS011;14654;48.898;8.308;2022-11-20T14:32:43;1.87;;;1.10;;
15633;SDS011;14654;48.898;8.308;2022-11-20T14:35:13;1.37;;;0.93;;
15633;SDS011;14654;48.898;8.308;2022-11-20T14:37:43;1.70;;;1.10;;
15633;SDS011;14654;48.898;8.308;2022-11-20T14:42:49;2.73;;;0.90;;
15633;SDS011;14654;48.898;8.308;2022-11-20T14:45:14;1.50;;;1.10;;
15633;SDS011;14654;48.898;8.308;2022-11-20T14:47:41;1.83;;;1.23;;
15633;SDS011;14654;48.898;8.308;2022-11-20T14:50:28;3.37;;;1.30;;
15633;SDS011;14654;48.898;8.308;2022-11-20T14:52:55;1.90;;;1.10;;
15633;SDS011;14654;48.898;8.308;2022-11-20T14:55:31;1.80;;;1.37;;
15633;SDS011;14654;48.898;8.308;2022-11-20T14:58:05;1.73;;;1.00;;
15633;SDS011;14654;48.898;8.308;2022-11-20T15:00:54;1.80;;;1.07;;
15633;SDS011;14654;48.898;8.308;2022-11-20T15:03:22;2.50;;;1.10;;
15633;SDS011;14654;48.898;8.308;2022-11-20T15:05:48;2.20;;;1.03;;
15633;SDS011;14654;48.898;8.308;2022-11-20T15:08:16;2.10;;;1.10;;
15633;SDS011;14654;48.898;8.308;2022-11-20T15:10:45;2.30;;;1.03;;
15633;SDS011;14654;48.898;8.308;2022-11-20T15:13:14;1.73;;;0.97;;
15633;SDS011;14654;48.898;8.308;2022-11-20T15:15:51;2.03;;;0.90;;
15633;SDS011;14654;48.898;8.308;2022-11-20T15:18:21;1.67;;;1.10;;
15633;SDS011;14654;48.898;8.308;2022-11-20T15:20:49;1.63;;;1.00;;
15633;SDS011;14654;48.898;8.308;2022-11-20T15:23:16;2.10;;;1.13;;
15633;SDS011;14654;48.898;8.308;2022-11-20T15:25:46;1.60;;;1.00;;
15633;SDS011;14654;48.898;8.308;2022-11-20T15:28:18;2.23;;;1.30;;
15633;SDS011;14654;48.898;8.308;2022-11-20T15:30:48;1.80;;;1.20;;
15633;SDS011;14654;48.898;8.308;2022-11-20T15:33:15;1.20;;;0.90;;
15633;SDS011;14654;48.898;8.308;2022-11-20T15:35:41;2.00;;;1.10;;
15633;SDS011;14654;48.898;8.308;2022-11-20T15:38:07;3.53;;;2.97;;
15633;SDS011;14654;48.898;8.308;2022-11-20T15:40:32;3.83;;;3.30;;
15633;SDS011;14654;48.898;8.308;2022-11-20T15:42:58;3.07;;;2.63;;
15633;SDS011;14654;48.898;8.308;2022-11-20T15:45:39;2.67;;;1.90;;
15633;SDS011;14654;48.898;8.308;2022-11-20T15:48:11;1.80;;;1.70;;
15633;SDS011;14654;48.898;8.308;2022-11-20T15:50:54;2.00;;;1.40;;
15633;SDS011;14654;48.898;8.308;2022-11-20T15:53:23;1.90;;;1.07;;
15633;SDS011;14654;48.898;8.308;2022-11-20T15:55:48;1.60;;;1.20;;
15633;SDS011;14654;48.898;8.308;2022-11-20T15:58:14;2.20;;;1.40;;
15633;SDS011;14654;48.898;8.308;2022-11-20T16:00:41;1.33;;;1.00;;
15633;SDS011;14654;48.898;8.308;2022-11-20T16:03:08;1.40;;;1.07;;
15633;SDS011;14654;48.898;8.308;2022-11-20T16:05:36;2.70;;;1.70;;
15633;SDS011;14654;48.898;8.308;2022-11-20T16:08:01;1.40;;;1.30;;
15633;SDS011;14654;48.898;8.308;2022-11-20T16:10:26;2.17;;;1.33;;
15633;SDS011;14654;48.898;8.308;2022-11-20T16:12:52;2.00;;;1.20;;
15633;SDS011;14654;48.898;8.308;2022-11-20T16:15:36;1.83;;;1.33;;
15633;SDS011;14654;48.898;8.308;2022-11-20T16:18:10;1.50;;;1.10;;
15633;SDS011;14654;48.898;8.308;2022-11-20T16:20:37;2.53;;;1.27;;
15633;SDS011;14654;48.898;8.308;2022-11-20T16:23:03;1.70;;;1.47;;
15633;SDS011;14654;48.898;8.308;2022-11-20T16:25:29;2.73;;;1.70;;
15633;SDS011;14654;48.898;8.308;2022-11-20T16:27:54;2.40;;;1.80;;
15633;SDS011;14654;48.898;8.308;2022-11-20T16:30:19;3.70;;;1.60;;
15633;SDS011;14654;48.898;8.308;2022-11-20T16:32:45;2.97;;;2.00;;
15633;SDS011;14654;48.898;8.308;2022-11-20T16:35:10;2.13;;;1.93;;